Pagrindinis puslapis
METAR-TAF:

METAR-TAF

Oro uostai :

Uberaba, Minas Žeraisas, Brazilija

platuma: 19-47S, ilguma: 047-58W, Aukštis: 807 m

Dabartinis oras

Ataskaita buvo paskelbta 3 valandos ir 45 minutes, ne 01:00 UTC
Vėjas 7 kt iš Šiaurės
Temperatūra 24°C
Drėgmė 74%
Slėgis 1016 hPa
Matomumas 10 km arba daugiau
Išsisklaidę debesys ne aukštis 4900 ft
Mažai debesys ne aukštis 5000 ft, Liūtiniai kamuoliniai debesys.
Išsisklaidę debesys ne aukštis 10000 ft
Perkūnija kaimynystėje

METAR: SBUR 250100Z 01007KT 9999 VCTS SCT049 FEW050CB SCT100 24/19 Q1016

Laikas: 01:45 (04:45 UTC)

Prognozė

Ataskaita buvo paskelbta 6 valandos ir 20 minutes, ne 22:25 UTC
Prognozė galioja nuo 25 metu 00 UTC su 25 metu 12 UTC
Vėjas 5 kt iš Šiaurės/Šiaurės Rytų
Matomumas 10 km arba daugiau
nėra debesų žemiau 1500 m ir nėra kamuolinių lietaus debesų

TAF: SBUR 242225Z 2500/2512 03005KT CAVOK TN20/2509Z TX25/2511Z RMK PGG

Orai ataskaitas ir orų prognozės (METAR, TAF).

turimą stotys yra geltonos ir raudonos taškus žemėlapyje.

Perkelti pele per norėdami pamatyti stoties vardą.

Tada spustelėkite, norėdami matyti oro stebėjimo ir prognozės.

Norėdami pakeisti žemėlapį: spustelėkite ant žalios mygtukų su juodo kryžiaus žemyn,; žalią mygtuką su brūkšneliu, jei norite nutolinti; arba žalių rodyklių gretimoms žemėlapius.


METAR-TAF: